Terminal Aerodrome Forecast
Issued by NWS

Home | Current Version | Previous Version | Text Only | Print | Product List | Glossary On
Versions: 1 2 3 4 5 6 7 8 9 10 11 12 13 14 15 16 17
000
FTUS41 KBOX 132338
TAFHYA
TAF
KHYA 132338Z 1400/1424 27019G34KT P6SM SKC
     FM140600 26014G26KT P6SM OVC090
     FM140900 27010G20KT 2SM -SN OVC060
     FM141200 31010KT 1SM -SN BKN015 OVC030
     FM141600 33010KT 2SM -SN SCT015 BKN030
     FM141900 31010G18KT P6SM BKN050
     FM142000 30010G18KT P6SM SCT150=

USA.gov is the U.S. government's official web portal to all federal, state and local government web resources and services.